sensor_id;sensor_type;location;lat;lon;timestamp;pressure;altitude;pressure_sealevel;temperature;humidity
61805;BME280;47725;47.912;7.356;2023-04-25T00:01:15;98757.65;;;12.26;49.84
61805;BME280;47725;47.912;7.356;2023-04-25T00:05:15;98757.28;;;12.31;49.52
61805;BME280;47725;47.912;7.356;2023-04-25T00:09:15;98757.39;;;12.36;49.69
61805;BME280;47725;47.912;7.356;2023-04-25T00:13:15;98757.51;;;12.40;49.78
61805;BME280;47725;47.912;7.356;2023-04-25T00:17:16;98756.86;;;12.43;49.71
61805;BME280;47725;47.912;7.356;2023-04-25T00:21:15;98757.40;;;12.46;50.00
61805;BME280;47725;47.912;7.356;2023-04-25T00:25:15;98759.03;;;12.46;51.15
61805;BME280;47725;47.912;7.356;2023-04-25T00:29:15;98759.84;;;12.42;51.51
61805;BME280;47725;47.912;7.356;2023-04-25T00:33:15;98760.36;;;12.38;51.95
61805;BME280;47725;47.912;7.356;2023-04-25T00:37:15;98759.47;;;12.30;54.06
61805;BME280;47725;47.912;7.356;2023-04-25T00:41:15;98757.98;;;12.23;52.90
61805;BME280;47725;47.912;7.356;2023-04-25T00:45:15;98754.24;;;12.22;52.41
61805;BME280;47725;47.912;7.356;2023-04-25T00:49:15;98750.22;;;12.24;52.20
61805;BME280;47725;47.912;7.356;2023-04-25T00:53:15;98745.67;;;12.26;51.98
61805;BME280;47725;47.912;7.356;2023-04-25T00:57:15;98740.56;;;12.28;52.03
61805;BME280;47725;47.912;7.356;2023-04-25T01:01:15;98736.77;;;12.29;52.00
61805;BME280;47725;47.912;7.356;2023-04-25T01:05:15;98733.08;;;12.30;52.00
61805;BME280;47725;47.912;7.356;2023-04-25T01:09:15;98729.81;;;12.31;52.07
61805;BME280;47725;47.912;7.356;2023-04-25T01:13:15;98726.95;;;12.31;52.31
61805;BME280;47725;47.912;7.356;2023-04-25T01:17:15;98724.01;;;12.29;53.16
61805;BME280;47725;47.912;7.356;2023-04-25T01:21:15;98720.61;;;12.23;53.45
61805;BME280;47725;47.912;7.356;2023-04-25T01:25:15;98718.55;;;12.15;54.33
61805;BME280;47725;47.912;7.356;2023-04-25T01:29:18;98716.53;;;12.03;54.82
61805;BME280;47725;47.912;7.356;2023-04-25T01:33:15;98713.98;;;11.94;54.32
61805;BME280;47725;47.912;7.356;2023-04-25T01:37:16;98711.72;;;11.89;53.78
61805;BME280;47725;47.912;7.356;2023-04-25T01:41:15;98709.07;;;11.87;53.48
61805;BME280;47725;47.912;7.356;2023-04-25T01:45:15;98707.17;;;11.81;54.85
61805;BME280;47725;47.912;7.356;2023-04-25T01:49:15;98705.98;;;11.73;55.36
61805;BME280;47725;47.912;7.356;2023-04-25T01:53:15;98705.00;;;11.61;56.88
61805;BME280;47725;47.912;7.356;2023-04-25T01:57:15;98704.21;;;11.49;56.99
61805;BME280;47725;47.912;7.356;2023-04-25T02:01:15;98702.19;;;11.36;57.99
61805;BME280;47725;47.912;7.356;2023-04-25T02:05:15;98698.50;;;11.24;57.89
61805;BME280;47725;47.912;7.356;2023-04-25T02:09:15;98695.40;;;11.16;57.08
61805;BME280;47725;47.912;7.356;2023-04-25T02:13:15;98692.27;;;11.08;58.33
61805;BME280;47725;47.912;7.356;2023-04-25T02:17:15;98689.25;;;11.03;57.22
61805;BME280;47725;47.912;7.356;2023-04-25T02:21:15;98685.47;;;10.99;56.92
61805;BME280;47725;47.912;7.356;2023-04-25T02:25:15;98681.06;;;10.97;56.42
61805;BME280;47725;47.912;7.356;2023-04-25T02:29:15;98676.36;;;10.96;56.34
61805;BME280;47725;47.912;7.356;2023-04-25T02:33:15;98673.49;;;10.97;55.92
61805;BME280;47725;47.912;7.356;2023-04-25T02:37:15;98670.43;;;10.97;55.95
61805;BME280;47725;47.912;7.356;2023-04-25T02:41:15;98665.41;;;10.95;56.27
61805;BME280;47725;47.912;7.356;2023-04-25T02:45:15;98662.09;;;10.95;55.87
61805;BME280;47725;47.912;7.356;2023-04-25T02:49:15;98660.25;;;10.94;55.95
61805;BME280;47725;47.912;7.356;2023-04-25T02:53:15;98659.90;;;10.92;55.78
61805;BME280;47725;47.912;7.356;2023-04-25T02:57:15;98660.01;;;10.90;55.74
61805;BME280;47725;47.912;7.356;2023-04-25T03:01:15;98658.84;;;10.89;55.71
61805;BME280;47725;47.912;7.356;2023-04-25T03:05:15;98657.20;;;10.87;55.94
61805;BME280;47725;47.912;7.356;2023-04-25T03:09:15;98654.13;;;10.86;55.74
61805;BME280;47725;47.912;7.356;2023-04-25T03:13:15;98648.10;;;10.84;55.74
61805;BME280;47725;47.912;7.356;2023-04-25T03:17:15;98641.85;;;10.81;55.85
61805;BME280;47725;47.912;7.356;2023-04-25T03:21:15;98636.97;;;10.75;56.06
61805;BME280;47725;47.912;7.356;2023-04-25T03:25:15;98632.36;;;10.69;56.07
61805;BME280;47725;47.912;7.356;2023-04-25T03:29:15;98628.11;;;10.62;56.08
61805;BME280;47725;47.912;7.356;2023-04-25T03:33:15;98624.83;;;10.55;56.33
61805;BME280;47725;47.912;7.356;2023-04-25T03:37:15;98620.97;;;10.49;56.54
61805;BME280;47725;47.912;7.356;2023-04-25T03:41:15;98617.60;;;10.44;56.63
61805;BME280;47725;47.912;7.356;2023-04-25T03:45:15;98614.65;;;10.41;56.70
61805;BME280;47725;47.912;7.356;2023-04-25T03:49:15;98611.80;;;10.38;56.71
61805;BME280;47725;47.912;7.356;2023-04-25T03:53:15;98610.25;;;10.36;56.75
61805;BME280;47725;47.912;7.356;2023-04-25T03:57:15;98609.19;;;10.36;56.83
61805;BME280;47725;47.912;7.356;2023-04-25T04:01:15;98608.31;;;10.36;56.76
61805;BME280;47725;47.912;7.356;2023-04-25T04:05:15;98607.72;;;10.37;56.78
61805;BME280;47725;47.912;7.356;2023-04-25T04:09:15;98607.36;;;10.38;56.96
61805;BME280;47725;47.912;7.356;2023-04-25T04:13:15;98607.70;;;10.40;56.90
61805;BME280;47725;47.912;7.356;2023-04-25T04:17:15;98607.78;;;10.43;56.86
61805;BME280;47725;47.912;7.356;2023-04-25T04:21:15;98609.48;;;10.46;57.65
61805;BME280;47725;47.912;7.356;2023-04-25T04:25:15;98611.60;;;10.46;57.74
61805;BME280;47725;47.912;7.356;2023-04-25T04:29:15;98612.58;;;10.45;58.90
61805;BME280;47725;47.912;7.356;2023-04-25T04:33:15;98614.90;;;10.41;60.89
61805;BME280;47725;47.912;7.356;2023-04-25T04:37:15;98618.70;;;10.35;61.46
61805;BME280;47725;47.912;7.356;2023-04-25T04:41:15;98622.33;;;10.32;60.80
61805;BME280;47725;47.912;7.356;2023-04-25T04:45:15;98624.18;;;10.31;61.32
61805;BME280;47725;47.912;7.356;2023-04-25T04:49:15;98624.78;;;10.26;62.75
61805;BME280;47725;47.912;7.356;2023-04-25T04:53:15;98626.03;;;10.18;62.89
61805;BME280;47725;47.912;7.356;2023-04-25T04:57:15;98626.97;;;10.08;65.70
61805;BME280;47725;47.912;7.356;2023-04-25T05:01:15;98626.98;;;9.97;66.11
61805;BME280;47725;47.912;7.356;2023-04-25T05:05:15;98626.09;;;9.88;65.26
61805;BME280;47725;47.912;7.356;2023-04-25T05:09:15;98627.82;;;9.87;63.31
61805;BME280;47725;47.912;7.356;2023-04-25T05:13:15;98633.08;;;9.89;64.05
61805;BME280;47725;47.912;7.356;2023-04-25T05:17:15;98638.30;;;9.90;64.16
61805;BME280;47725;47.912;7.356;2023-04-25T05:21:15;98641.71;;;9.90;64.54
61805;BME280;47725;47.912;7.356;2023-04-25T05:25:15;98643.95;;;9.89;65.31
61805;BME280;47725;47.912;7.356;2023-04-25T05:29:15;98648.10;;;9.87;65.93
61805;BME280;47725;47.912;7.356;2023-04-25T05:33:15;98652.56;;;9.83;65.84
61805;BME280;47725;47.912;7.356;2023-04-25T05:37:15;98658.85;;;9.85;65.78
61805;BME280;47725;47.912;7.356;2023-04-25T05:41:15;98663.36;;;9.84;65.57
61805;BME280;47725;47.912;7.356;2023-04-25T05:45:15;98668.30;;;9.85;65.28
61805;BME280;47725;47.912;7.356;2023-04-25T05:49:15;98672.77;;;9.87;65.06
61805;BME280;47725;47.912;7.356;2023-04-25T05:53:15;98678.59;;;9.91;64.07
61805;BME280;47725;47.912;7.356;2023-04-25T05:57:19;98683.26;;;9.96;64.13
61805;BME280;47725;47.912;7.356;2023-04-25T06:01:15;98686.99;;;9.98;64.71
61805;BME280;47725;47.912;7.356;2023-04-25T06:05:15;98690.69;;;9.98;65.08
61805;BME280;47725;47.912;7.356;2023-04-25T06:09:15;98694.19;;;10.00;64.38
61805;BME280;47725;47.912;7.356;2023-04-25T06:13:15;98695.97;;;10.05;63.82
61805;BME280;47725;47.912;7.356;2023-04-25T06:17:15;98699.32;;;10.13;63.26
61805;BME280;47725;47.912;7.356;2023-04-25T06:21:15;98702.70;;;10.22;62.92
61805;BME280;47725;47.912;7.356;2023-04-25T06:25:15;98707.73;;;10.32;62.77
61805;BME280;47725;47.912;7.356;2023-04-25T06:29:15;98711.56;;;10.42;62.49
61805;BME280;47725;47.912;7.356;2023-04-25T06:33:15;98715.65;;;10.52;62.16
61805;BME280;47725;47.912;7.356;2023-04-25T06:37:15;98719.09;;;10.60;62.49
61805;BME280;47725;47.912;7.356;2023-04-25T06:41:15;98724.08;;;10.65;62.51
61805;BME280;47725;47.912;7.356;2023-04-25T06:45:15;98729.52;;;10.69;62.68
61805;BME280;47725;47.912;7.356;2023-04-25T06:49:15;98733.98;;;10.72;62.50
61805;BME280;47725;47.912;7.356;2023-04-25T06:53:15;98739.03;;;10.78;62.65
61805;BME280;47725;47.912;7.356;2023-04-25T06:57:15;98743.16;;;10.84;62.73
61805;BME280;47725;47.912;7.356;2023-04-25T07:01:15;98747.32;;;10.90;62.45
61805;BME280;47725;47.912;7.356;2023-04-25T07:05:15;98751.67;;;10.97;62.30
61805;BME280;47725;47.912;7.356;2023-04-25T07:09:15;98755.87;;;11.04;62.20
61805;BME280;47725;47.912;7.356;2023-04-25T07:13:14;98760.10;;;11.10;62.09
61805;BME280;47725;47.912;7.356;2023-04-25T07:17:14;98762.98;;;11.15;61.89
61805;BME280;47725;47.912;7.356;2023-04-25T07:21:14;98765.70;;;11.22;61.87
61805;BME280;47725;47.912;7.356;2023-04-25T07:25:14;98768.67;;;11.31;62.00
61805;BME280;47725;47.912;7.356;2023-04-25T07:29:15;98772.13;;;11.41;61.55
61805;BME280;47725;47.912;7.356;2023-04-25T07:33:14;98775.05;;;11.52;60.98
61805;BME280;47725;47.912;7.356;2023-04-25T07:37:15;98777.44;;;11.62;60.65
61805;BME280;47725;47.912;7.356;2023-04-25T07:41:14;98780.65;;;11.72;60.11
61805;BME280;47725;47.912;7.356;2023-04-25T07:45:15;98784.44;;;11.83;59.24
61805;BME280;47725;47.912;7.356;2023-04-25T07:49:14;98787.62;;;11.92;59.57
61805;BME280;47725;47.912;7.356;2023-04-25T07:53:14;98793.44;;;12.00;59.02
61805;BME280;47725;47.912;7.356;2023-04-25T07:57:14;98801.20;;;12.07;59.41
61805;BME280;47725;47.912;7.356;2023-04-25T08:01:14;98808.34;;;12.14;58.89
61805;BME280;47725;47.912;7.356;2023-04-25T08:05:15;98814.92;;;12.19;59.23
61805;BME280;47725;47.912;7.356;2023-04-25T08:09:14;98821.53;;;12.24;59.21
61805;BME280;47725;47.912;7.356;2023-04-25T08:13:14;98829.16;;;12.30;59.51
61805;BME280;47725;47.912;7.356;2023-04-25T08:17:14;98837.19;;;12.35;58.93
61805;BME280;47725;47.912;7.356;2023-04-25T08:21:14;98844.19;;;12.40;59.27
61805;BME280;47725;47.912;7.356;2023-04-25T08:25:14;98850.40;;;12.45;58.50
61805;BME280;47725;47.912;7.356;2023-04-25T08:29:15;98855.83;;;12.53;58.64
61805;BME280;47725;47.912;7.356;2023-04-25T08:33:14;98861.79;;;12.69;58.09
61805;BME280;47725;47.912;7.356;2023-04-25T08:37:14;98868.16;;;12.90;56.43
61805;BME280;47725;47.912;7.356;2023-04-25T08:41:14;98872.45;;;13.09;55.50
61805;BME280;47725;47.912;7.356;2023-04-25T08:45:14;98877.06;;;13.22;55.84
61805;BME280;47725;47.912;7.356;2023-04-25T08:49:14;98881.51;;;13.30;55.22
61805;BME280;47725;47.912;7.356;2023-04-25T08:53:14;98885.66;;;13.37;55.77
61805;BME280;47725;47.912;7.356;2023-04-25T08:57:14;98888.79;;;13.42;55.45
61805;BME280;47725;47.912;7.356;2023-04-25T09:01:14;98892.46;;;13.51;55.10
61805;BME280;47725;47.912;7.356;2023-04-25T09:05:14;98894.59;;;13.60;55.17
61805;BME280;47725;47.912;7.356;2023-04-25T09:09:14;98897.25;;;13.73;55.14
61805;BME280;47725;47.912;7.356;2023-04-25T09:13:17;98900.25;;;13.85;54.06
61805;BME280;47725;47.912;7.356;2023-04-25T09:17:14;98902.64;;;13.91;53.75
61805;BME280;47725;47.912;7.356;2023-04-25T09:21:14;98904.99;;;13.98;54.42
61805;BME280;47725;47.912;7.356;2023-04-25T09:25:14;98906.54;;;14.10;52.67
61805;BME280;47725;47.912;7.356;2023-04-25T09:29:14;98907.05;;;14.21;52.13
61805;BME280;47725;47.912;7.356;2023-04-25T09:33:14;98910.07;;;14.30;52.26
61805;BME280;47725;47.912;7.356;2023-04-25T09:37:18;98913.03;;;14.41;53.17
61805;BME280;47725;47.912;7.356;2023-04-25T09:41:15;98916.54;;;14.52;52.28
61805;BME280;47725;47.912;7.356;2023-04-25T09:45:14;98919.33;;;14.61;50.79
61805;BME280;47725;47.912;7.356;2023-04-25T09:49:14;98922.73;;;14.71;51.54
61805;BME280;47725;47.912;7.356;2023-04-25T09:53:14;98925.59;;;14.84;51.45
61805;BME280;47725;47.912;7.356;2023-04-25T09:57:15;98928.58;;;14.98;50.98
61805;BME280;47725;47.912;7.356;2023-04-25T10:01:14;98931.10;;;15.11;50.02
61805;BME280;47725;47.912;7.356;2023-04-25T10:05:15;98933.01;;;15.25;50.04
61805;BME280;47725;47.912;7.356;2023-04-25T10:09:14;98935.77;;;15.39;49.38
61805;BME280;47725;47.912;7.356;2023-04-25T10:13:14;98938.81;;;15.60;48.47
61805;BME280;47725;47.912;7.356;2023-04-25T10:17:14;98939.62;;;15.81;46.39
61805;BME280;47725;47.912;7.356;2023-04-25T10:21:14;98941.19;;;16.01;47.12
61805;BME280;47725;47.912;7.356;2023-04-25T10:25:14;98942.72;;;16.15;46.59
61805;BME280;47725;47.912;7.356;2023-04-25T10:29:21;98944.43;;;16.25;46.67
61805;BME280;47725;47.912;7.356;2023-04-25T10:33:17;98947.66;;;16.31;46.48
61805;BME280;47725;47.912;7.356;2023-04-25T10:37:14;98951.62;;;16.32;46.96
61805;BME280;47725;47.912;7.356;2023-04-25T10:41:14;98955.05;;;16.28;45.92
61805;BME280;47725;47.912;7.356;2023-04-25T10:45:14;98958.00;;;16.20;46.44
61805;BME280;47725;47.912;7.356;2023-04-25T10:49:33;98961.36;;;16.09;47.10
61805;BME280;47725;47.912;7.356;2023-04-25T10:53:14;98966.06;;;15.96;47.21
61805;BME280;47725;47.912;7.356;2023-04-25T11:01:15;98971.81;;;15.63;49.35
61805;BME280;47725;47.912;7.356;2023-04-25T11:05:27;98973.02;;;15.54;48.99
61805;BME280;47725;47.912;7.356;2023-04-25T11:09:14;98974.01;;;15.52;48.93
61805;BME280;47725;47.912;7.356;2023-04-25T11:13:14;98974.89;;;15.60;47.84
61805;BME280;47725;47.912;7.356;2023-04-25T11:17:14;98973.97;;;15.67;46.72
61805;BME280;47725;47.912;7.356;2023-04-25T11:21:14;98973.33;;;15.79;46.99
61805;BME280;47725;47.912;7.356;2023-04-25T11:25:15;98971.53;;;15.94;46.04
61805;BME280;47725;47.912;7.356;2023-04-25T11:29:14;98970.14;;;16.12;43.79
61805;BME280;47725;47.912;7.356;2023-04-25T11:33:14;98969.37;;;16.28;44.38
61805;BME280;47725;47.912;7.356;2023-04-25T11:37:14;98965.91;;;16.44;44.07
61805;BME280;47725;47.912;7.356;2023-04-25T11:41:14;98963.83;;;16.54;42.83
61805;BME280;47725;47.912;7.356;2023-04-25T11:45:14;98963.22;;;16.60;44.98
61805;BME280;47725;47.912;7.356;2023-04-25T11:49:14;98963.56;;;16.70;45.06
61805;BME280;47725;47.912;7.356;2023-04-25T11:53:14;98965.91;;;16.78;44.18
61805;BME280;47725;47.912;7.356;2023-04-25T11:57:14;98970.22;;;16.76;45.74
61805;BME280;47725;47.912;7.356;2023-04-25T12:01:24;98975.31;;;16.62;48.35
61805;BME280;47725;47.912;7.356;2023-04-25T12:05:14;98979.61;;;16.43;49.21
61805;BME280;47725;47.912;7.356;2023-04-25T12:09:15;98982.78;;;16.21;49.34
61805;BME280;47725;47.912;7.356;2023-04-25T12:13:17;98983.08;;;16.04;49.95
61805;BME280;47725;47.912;7.356;2023-04-25T12:17:14;98982.40;;;15.91;49.52
61805;BME280;47725;47.912;7.356;2023-04-25T12:21:14;98980.29;;;15.86;49.29
61805;BME280;47725;47.912;7.356;2023-04-25T12:29:18;98979.43;;;15.97;47.86
61805;BME280;47725;47.912;7.356;2023-04-25T12:33:14;98980.70;;;16.00;47.70
61805;BME280;47725;47.912;7.356;2023-04-25T12:37:14;98980.58;;;16.07;47.46
61805;BME280;47725;47.912;7.356;2023-04-25T12:41:14;98979.69;;;16.17;47.52
61805;BME280;47725;47.912;7.356;2023-04-25T12:45:14;98978.46;;;16.32;45.91
61805;BME280;47725;47.912;7.356;2023-04-25T12:49:14;98977.04;;;16.45;45.17
61805;BME280;47725;47.912;7.356;2023-04-25T12:53:15;98975.27;;;16.59;46.38
61805;BME280;47725;47.912;7.356;2023-04-25T12:57:14;98973.75;;;16.74;44.29
61805;BME280;47725;47.912;7.356;2023-04-25T13:01:14;98971.61;;;16.83;44.56
61805;BME280;47725;47.912;7.356;2023-04-25T13:05:14;98969.83;;;16.94;44.56
61805;BME280;47725;47.912;7.356;2023-04-25T13:09:14;98967.10;;;17.09;44.43
61805;BME280;47725;47.912;7.356;2023-04-25T13:13:14;98964.21;;;17.19;43.03
61805;BME280;47725;47.912;7.356;2023-04-25T13:17:14;98961.79;;;17.29;43.59
61805;BME280;47725;47.912;7.356;2023-04-25T13:21:14;98960.86;;;17.45;42.16
61805;BME280;47725;47.912;7.356;2023-04-25T13:25:14;98960.37;;;17.47;44.09
61805;BME280;47725;47.912;7.356;2023-04-25T13:29:14;98960.77;;;17.47;43.51
61805;BME280;47725;47.912;7.356;2023-04-25T13:33:14;98960.91;;;17.42;43.56
61805;BME280;47725;47.912;7.356;2023-04-25T13:37:14;98961.49;;;17.41;43.68
61805;BME280;47725;47.912;7.356;2023-04-25T13:41:14;98962.16;;;17.37;43.41
61805;BME280;47725;47.912;7.356;2023-04-25T13:45:14;98962.02;;;17.30;42.91
61805;BME280;47725;47.912;7.356;2023-04-25T13:49:14;98962.43;;;17.26;43.76
61805;BME280;47725;47.912;7.356;2023-04-25T13:53:14;98964.46;;;17.20;43.58
61805;BME280;47725;47.912;7.356;2023-04-25T13:57:14;98966.86;;;17.09;43.37
61805;BME280;47725;47.912;7.356;2023-04-25T14:01:14;98970.97;;;16.99;44.51
61805;BME280;47725;47.912;7.356;2023-04-25T14:05:14;98975.86;;;16.89;45.05
61805;BME280;47725;47.912;7.356;2023-04-25T14:09:14;98984.49;;;16.75;46.89
61805;BME280;47725;47.912;7.356;2023-04-25T14:13:14;98991.85;;;16.49;49.46
61805;BME280;47725;47.912;7.356;2023-04-25T14:17:14;98999.11;;;16.16;50.62
61805;BME280;47725;47.912;7.356;2023-04-25T14:21:14;99005.84;;;15.83;50.93
61805;BME280;47725;47.912;7.356;2023-04-25T14:25:14;99011.38;;;15.54;51.11
61805;BME280;47725;47.912;7.356;2023-04-25T14:29:18;99015.11;;;15.29;51.83
61805;BME280;47725;47.912;7.356;2023-04-25T14:33:18;99014.97;;;15.07;52.69
61805;BME280;47725;47.912;7.356;2023-04-25T14:37:18;99014.33;;;14.89;52.41
61805;BME280;47725;47.912;7.356;2023-04-25T14:41:18;99014.09;;;14.79;52.30
61805;BME280;47725;47.912;7.356;2023-04-25T14:45:19;99013.60;;;14.75;52.19
61805;BME280;47725;47.912;7.356;2023-04-25T14:49:18;99011.81;;;14.75;52.40
61805;BME280;47725;47.912;7.356;2023-04-25T14:53:18;99009.80;;;14.76;52.19
61805;BME280;47725;47.912;7.356;2023-04-25T14:57:18;99008.44;;;14.79;52.32
61805;BME280;47725;47.912;7.356;2023-04-25T15:01:18;99008.28;;;14.83;50.49
61805;BME280;47725;47.912;7.356;2023-04-25T15:05:18;99008.61;;;14.83;51.24
61805;BME280;47725;47.912;7.356;2023-04-25T15:09:18;99010.62;;;14.86;51.49
61805;BME280;47725;47.912;7.356;2023-04-25T15:13:18;99013.37;;;14.86;51.13
61805;BME280;47725;47.912;7.356;2023-04-25T15:17:18;99016.00;;;14.87;51.46
61805;BME280;47725;47.912;7.356;2023-04-25T15:21:18;99020.88;;;14.90;51.16
61805;BME280;47725;47.912;7.356;2023-04-25T15:25:18;99027.34;;;14.91;51.88
61805;BME280;47725;47.912;7.356;2023-04-25T15:29:18;99033.81;;;14.90;52.73
61805;BME280;47725;47.912;7.356;2023-04-25T15:33:18;99037.64;;;14.84;54.30
61805;BME280;47725;47.912;7.356;2023-04-25T15:37:18;99042.80;;;14.74;54.98
61805;BME280;47725;47.912;7.356;2023-04-25T15:41:18;99047.66;;;14.67;53.56
61805;BME280;47725;47.912;7.356;2023-04-25T15:45:19;99053.42;;;14.60;53.44
61805;BME280;47725;47.912;7.356;2023-04-25T15:49:18;99060.29;;;14.51;53.89
61805;BME280;47725;47.912;7.356;2023-04-25T15:53:18;99066.99;;;14.41;54.26
61805;BME280;47725;47.912;7.356;2023-04-25T15:57:18;99073.64;;;14.30;54.98
61805;BME280;47725;47.912;7.356;2023-04-25T16:01:18;99081.52;;;14.18;55.57
61805;BME280;47725;47.912;7.356;2023-04-25T16:05:18;99090.56;;;14.07;55.29
61805;BME280;47725;47.912;7.356;2023-04-25T16:09:18;99100.28;;;13.98;55.71
61805;BME280;47725;47.912;7.356;2023-04-25T16:13:18;99109.52;;;13.91;55.34
61805;BME280;47725;47.912;7.356;2023-04-25T16:17:18;99114.62;;;13.81;56.49
61805;BME280;47725;47.912;7.356;2023-04-25T16:21:19;99116.01;;;13.70;57.04
61805;BME280;47725;47.912;7.356;2023-04-25T16:25:18;99115.09;;;13.61;57.91
61805;BME280;47725;47.912;7.356;2023-04-25T16:29:18;99112.36;;;13.57;59.00
61805;BME280;47725;47.912;7.356;2023-04-25T16:33:18;99107.76;;;13.56;59.96
61805;BME280;47725;47.912;7.356;2023-04-25T16:37:18;99101.12;;;13.53;60.58
61805;BME280;47725;47.912;7.356;2023-04-25T16:41:18;99095.53;;;13.52;59.80
61805;BME280;47725;47.912;7.356;2023-04-25T16:45:19;99092.61;;;13.49;59.16
61805;BME280;47725;47.912;7.356;2023-04-25T16:49:18;99090.70;;;13.45;60.51
61805;BME280;47725;47.912;7.356;2023-04-25T16:53:18;99090.62;;;13.40;59.94
61805;BME280;47725;47.912;7.356;2023-04-25T16:57:18;99090.00;;;13.37;59.96
61805;BME280;47725;47.912;7.356;2023-04-25T17:01:18;99090.67;;;13.35;60.26
61805;BME280;47725;47.912;7.356;2023-04-25T17:05:18;99090.99;;;13.32;60.78
61805;BME280;47725;47.912;7.356;2023-04-25T17:09:18;99092.46;;;13.28;60.01
61805;BME280;47725;47.912;7.356;2023-04-25T17:13:18;99095.81;;;13.25;60.15
61805;BME280;47725;47.912;7.356;2023-04-25T17:17:18;99100.20;;;13.21;60.03
61805;BME280;47725;47.912;7.356;2023-04-25T17:21:18;99104.93;;;13.17;59.90
61805;BME280;47725;47.912;7.356;2023-04-25T17:25:18;99110.67;;;13.12;59.92
61805;BME280;47725;47.912;7.356;2023-04-25T17:29:18;99117.64;;;13.10;59.23
61805;BME280;47725;47.912;7.356;2023-04-25T17:33:18;99123.16;;;13.05;59.45
61805;BME280;47725;47.912;7.356;2023-04-25T17:37:18;99127.81;;;12.98;59.54
61805;BME280;47725;47.912;7.356;2023-04-25T17:41:18;99132.56;;;12.92;59.35
61805;BME280;47725;47.912;7.356;2023-04-25T17:45:18;99136.69;;;12.85;59.51
61805;BME280;47725;47.912;7.356;2023-04-25T17:49:18;99141.25;;;12.79;59.48
61805;BME280;47725;47.912;7.356;2023-04-25T17:53:18;99144.87;;;12.73;59.49
61805;BME280;47725;47.912;7.356;2023-04-25T17:57:18;99148.99;;;12.67;59.60
61805;BME280;47725;47.912;7.356;2023-04-25T18:01:18;99153.81;;;12.62;59.56
61805;BME280;47725;47.912;7.356;2023-04-25T18:05:18;99158.70;;;12.57;59.66
61805;BME280;47725;47.912;7.356;2023-04-25T18:09:18;99161.72;;;12.50;59.81
61805;BME280;47725;47.912;7.356;2023-04-25T18:13:18;99164.39;;;12.45;59.94
61805;BME280;47725;47.912;7.356;2023-04-25T18:17:18;99168.74;;;12.41;59.66
61805;BME280;47725;47.912;7.356;2023-04-25T18:21:18;99174.30;;;12.39;59.85
61805;BME280;47725;47.912;7.356;2023-04-25T18:25:18;99180.98;;;12.36;59.96
61805;BME280;47725;47.912;7.356;2023-04-25T18:29:18;99188.78;;;12.35;59.77
61805;BME280;47725;47.912;7.356;2023-04-25T18:33:18;99194.97;;;12.35;60.00
61805;BME280;47725;47.912;7.356;2023-04-25T18:37:18;99197.38;;;12.34;60.11
61805;BME280;47725;47.912;7.356;2023-04-25T18:41:20;99199.38;;;12.34;60.20
61805;BME280;47725;47.912;7.356;2023-04-25T18:45:18;99201.86;;;12.31;60.56
61805;BME280;47725;47.912;7.356;2023-04-25T18:49:18;99205.62;;;12.29;60.39
61805;BME280;47725;47.912;7.356;2023-04-25T18:53:18;99210.67;;;12.24;60.49
61805;BME280;47725;47.912;7.356;2023-04-25T18:57:18;99217.21;;;12.19;60.75
61805;BME280;47725;47.912;7.356;2023-04-25T19:01:18;99223.38;;;12.13;60.98
61805;BME280;47725;47.912;7.356;2023-04-25T19:05:18;99228.70;;;12.07;61.13
61805;BME280;47725;47.912;7.356;2023-04-25T19:09:18;99232.95;;;12.03;60.91
61805;BME280;47725;47.912;7.356;2023-04-25T19:13:18;99236.83;;;12.00;61.16
61805;BME280;47725;47.912;7.356;2023-04-25T19:17:18;99240.48;;;11.97;61.11
61805;BME280;47725;47.912;7.356;2023-04-25T19:21:18;99244.53;;;11.93;61.47
61805;BME280;47725;47.912;7.356;2023-04-25T19:25:18;99247.36;;;11.88;61.68
61805;BME280;47725;47.912;7.356;2023-04-25T19:29:18;99250.52;;;11.84;61.78
61805;BME280;47725;47.912;7.356;2023-04-25T19:33:18;99253.20;;;11.81;61.77
61805;BME280;47725;47.912;7.356;2023-04-25T19:37:19;99257.11;;;11.79;61.90
61805;BME280;47725;47.912;7.356;2023-04-25T19:41:18;99259.97;;;11.76;61.97
61805;BME280;47725;47.912;7.356;2023-04-25T19:45:18;99262.73;;;11.74;62.03
61805;BME280;47725;47.912;7.356;2023-04-25T19:49:18;99264.89;;;11.72;62.08
61805;BME280;47725;47.912;7.356;2023-04-25T19:53:18;99266.74;;;11.70;62.17
61805;BME280;47725;47.912;7.356;2023-04-25T19:57:18;99268.47;;;11.67;62.46
61805;BME280;47725;47.912;7.356;2023-04-25T20:01:18;99270.09;;;11.65;62.46
61805;BME280;47725;47.912;7.356;2023-04-25T20:05:18;99272.80;;;11.63;62.28
61805;BME280;47725;47.912;7.356;2023-04-25T20:09:18;99275.08;;;11.60;62.56
61805;BME280;47725;47.912;7.356;2023-04-25T20:13:18;99276.95;;;11.58;62.70
61805;BME280;47725;47.912;7.356;2023-04-25T20:17:18;99278.27;;;11.56;62.51
61805;BME280;47725;47.912;7.356;2023-04-25T20:21:18;99279.40;;;11.53;62.60
61805;BME280;47725;47.912;7.356;2023-04-25T20:25:18;99282.61;;;11.50;62.63
61805;BME280;47725;47.912;7.356;2023-04-25T20:29:18;99285.50;;;11.45;62.62
61805;BME280;47725;47.912;7.356;2023-04-25T20:33:18;99289.01;;;11.42;62.78
61805;BME280;47725;47.912;7.356;2023-04-25T20:37:18;99292.07;;;11.38;62.78
61805;BME280;47725;47.912;7.356;2023-04-25T20:41:18;99295.31;;;11.35;62.94
61805;BME280;47725;47.912;7.356;2023-04-25T20:45:18;99298.17;;;11.33;63.03
61805;BME280;47725;47.912;7.356;2023-04-25T20:49:18;99300.90;;;11.32;63.00
61805;BME280;47725;47.912;7.356;2023-04-25T20:53:18;99302.29;;;11.30;63.31
61805;BME280;47725;47.912;7.356;2023-04-25T20:57:18;99303.05;;;11.28;63.31
61805;BME280;47725;47.912;7.356;2023-04-25T21:01:18;99303.39;;;11.21;64.26
61805;BME280;47725;47.912;7.356;2023-04-25T21:05:18;99302.72;;;11.14;64.48
61805;BME280;47725;47.912;7.356;2023-04-25T21:09:18;99303.12;;;11.08;64.41
61805;BME280;47725;47.912;7.356;2023-04-25T21:13:18;99304.32;;;11.03;64.48
61805;BME280;47725;47.912;7.356;2023-04-25T21:17:18;99305.53;;;10.99;64.53